createdAt,value
2023-05-12T00:02:16.337Z,89.10
2023-05-12T00:04:43.146Z,89.20
2023-05-12T00:07:09.818Z,89.20
2023-05-12T00:09:36.463Z,89.30
2023-05-12T00:12:03.711Z,89.40
2023-05-12T00:14:30.416Z,89.40
2023-05-12T00:47:23.095Z,91.20
2023-05-12T00:49:49.877Z,91.40
2023-05-12T00:52:16.501Z,91.50
2023-05-12T00:54:44.256Z,91.50
2023-05-12T00:57:11.581Z,91.80
2023-05-12T00:59:38.221Z,92.00
2023-05-12T01:02:05.812Z,92.10
2023-05-12T01:04:33.466Z,92.00
2023-05-12T01:07:22.008Z,92.40
2023-05-12T01:09:53.441Z,92.30
2023-05-12T01:12:21.373Z,92.40
2023-05-12T01:14:48.269Z,92.10
2023-05-12T01:17:19.479Z,92.60
2023-05-12T01:19:52.572Z,92.80
2023-05-12T01:22:19.939Z,92.40
2023-05-12T01:24:59.429Z,92.80
2023-05-12T01:27:28.350Z,92.80
2023-05-12T01:29:58.479Z,92.90
2023-05-12T01:32:25.421Z,93.00
2023-05-12T01:34:52.506Z,93.00
2023-05-12T01:37:19.473Z,93.30
2023-05-12T01:39:46.109Z,93.10
2023-05-12T01:42:13.042Z,93.00
2023-05-12T01:44:39.725Z,93.00
2023-05-12T01:47:09.780Z,93.00
2023-05-12T01:49:36.905Z,92.90
2023-05-12T01:52:03.861Z,93.40
2023-05-12T01:54:30.738Z,93.40
2023-05-12T01:56:57.426Z,93.40
2023-05-12T01:59:24.194Z,93.20
2023-05-12T02:01:50.981Z,93.10
2023-05-12T02:04:17.718Z,93.40
2023-05-12T02:06:44.395Z,93.30
2023-05-12T02:09:11.029Z,93.20
2023-05-12T02:11:37.679Z,93.50
2023-05-12T02:14:04.579Z,93.40
2023-05-12T02:16:31.258Z,93.60
2023-05-12T02:18:57.978Z,93.50
2023-05-12T02:21:24.686Z,93.50
2023-05-12T02:23:51.314Z,93.70
2023-05-12T02:26:19.400Z,93.60
2023-05-12T02:28:45.992Z,93.80
2023-05-12T02:31:12.621Z,93.80
2023-05-12T02:33:39.225Z,93.70
2023-05-12T02:36:06.315Z,93.70
2023-05-12T02:38:33.000Z,93.70
2023-05-12T02:40:59.703Z,93.80
2023-05-12T02:43:26.338Z,93.90
2023-05-12T02:45:54.085Z,94.40
2023-05-12T02:48:20.769Z,94.40
2023-05-12T02:50:47.382Z,94.60
2023-05-12T02:53:14.055Z,94.80
2023-05-12T02:55:40.798Z,94.70
2023-05-12T02:58:07.536Z,94.80
2023-05-12T03:00:34.232Z,94.90
2023-05-12T03:03:01.028Z,94.90
2023-05-12T03:05:27.850Z,94.90
2023-05-12T03:07:57.588Z,94.80
2023-05-12T03:10:24.292Z,94.50
2023-05-12T03:12:50.962Z,95.00
2023-05-12T03:15:17.749Z,94.90
2023-05-12T03:17:44.483Z,94.70
2023-05-12T03:20:12.186Z,94.40
2023-05-12T03:22:39.212Z,94.70
2023-05-12T03:25:07.151Z,94.50
2023-05-12T03:27:33.808Z,94.80
2023-05-12T03:30:05.129Z,94.60
2023-05-12T03:32:31.885Z,94.30
2023-05-12T03:34:58.625Z,94.30
2023-05-12T03:37:25.241Z,94.30
2023-05-12T03:39:51.957Z,94.40
2023-05-12T03:42:19.208Z,94.30
2023-05-12T03:44:45.899Z,94.40
2023-05-12T03:47:13.676Z,94.30
2023-05-12T03:49:40.487Z,93.90
2023-05-12T03:52:07.423Z,93.90
2023-05-12T03:54:35.096Z,94.20
2023-05-12T03:57:03.117Z,94.60
2023-05-12T03:59:32.854Z,94.30
2023-05-12T04:01:59.532Z,94.60
2023-05-12T04:04:26.433Z,95.00
2023-05-12T04:06:53.090Z,94.90
2023-05-12T04:09:21.271Z,95.10
2023-05-12T04:11:47.940Z,95.10
2023-05-12T04:14:14.545Z,94.70
2023-05-12T04:16:41.358Z,94.60
2023-05-12T04:19:08.167Z,95.00
2023-05-12T04:21:35.273Z,94.90
2023-05-12T04:24:01.916Z,95.20
2023-05-12T04:26:28.720Z,95.40
2023-05-12T04:28:55.400Z,94.90
2023-05-12T04:31:22.100Z,94.90
2023-05-12T04:33:48.808Z,94.80
2023-05-12T04:36:15.648Z,94.70
2023-05-12T04:38:42.393Z,94.30
2023-05-12T04:41:09.202Z,94.70
2023-05-12T04:46:05.712Z,94.80
2023-05-12T04:48:32.516Z,95.00
2023-05-12T04:51:00.078Z,95.20
2023-05-12T04:53:27.635Z,95.00
2023-05-12T04:55:54.411Z,95.10
2023-05-12T04:58:21.100Z,95.40
2023-05-12T05:00:47.738Z,95.00
2023-05-12T05:03:14.482Z,95.40
2023-05-12T05:05:41.204Z,95.40
2023-05-12T05:08:07.890Z,95.70
2023-05-12T05:10:34.601Z,95.90
2023-05-12T05:13:01.255Z,95.70
2023-05-12T05:15:27.912Z,95.80
2023-05-12T05:17:54.619Z,95.60
2023-05-12T05:20:27.617Z,95.70
2023-05-12T05:22:55.508Z,96.00
2023-05-12T05:25:22.195Z,96.10
2023-05-12T05:27:48.994Z,95.90
2023-05-12T05:30:15.772Z,96.00
2023-05-12T05:32:42.399Z,96.00
2023-05-12T05:35:09.294Z,95.90
2023-05-12T05:37:35.956Z,95.90
2023-05-12T05:40:02.624Z,96.10
2023-05-12T05:42:29.265Z,96.00
2023-05-12T05:44:56.428Z,95.70
2023-05-12T05:47:23.211Z,95.70
2023-05-12T05:49:50.065Z,95.90
2023-05-12T05:52:16.912Z,95.80
2023-05-12T05:54:43.538Z,95.70
2023-05-12T05:57:10.146Z,95.90
2023-05-12T05:59:36.867Z,95.50
2023-05-12T06:02:03.779Z,96.00
2023-05-12T06:04:30.655Z,95.30
2023-05-12T06:06:57.387Z,95.60
2023-05-12T06:09:24.129Z,95.60
2023-05-12T06:11:50.798Z,95.60
2023-05-12T06:14:17.495Z,96.10
2023-05-12T06:16:44.307Z,95.80
2023-05-12T06:19:11.874Z,96.50
2023-05-12T06:21:39.059Z,96.00
2023-05-12T06:24:05.881Z,95.70
2023-05-12T06:26:32.710Z,95.90
2023-05-12T06:28:59.468Z,95.90
2023-05-12T06:31:26.342Z,96.10
2023-05-12T06:33:53.068Z,96.00
2023-05-12T06:36:19.736Z,95.90
2023-05-12T06:38:46.341Z,95.30
2023-05-12T06:41:13.030Z,96.00
2023-05-12T06:43:39.715Z,96.10
2023-05-12T06:46:06.930Z,95.50
2023-05-12T06:48:33.638Z,95.70
2023-05-12T06:51:00.300Z,95.70
2023-05-12T06:53:27.281Z,95.90
2023-05-12T06:55:55.108Z,95.40
2023-05-12T06:58:22.104Z,95.10
2023-05-12T07:00:48.935Z,95.30
2023-05-12T07:03:15.755Z,95.50
2023-05-12T07:05:42.687Z,95.10
2023-05-12T07:08:09.438Z,94.70
2023-05-12T07:10:37.931Z,95.40
2023-05-12T07:13:04.750Z,95.60
2023-05-12T07:15:32.759Z,94.90
2023-05-12T07:17:59.800Z,94.80
2023-05-12T07:20:26.475Z,94.70
2023-05-12T07:22:54.763Z,94.70
2023-05-12T07:25:21.947Z,95.00
2023-05-12T07:27:49.895Z,95.00
2023-05-12T07:30:17.145Z,94.90
2023-05-12T07:32:43.853Z,95.60
2023-05-12T07:35:10.590Z,94.80
2023-05-12T07:37:37.496Z,95.60
2023-05-12T07:40:04.829Z,93.90
2023-05-12T07:42:31.592Z,94.30
2023-05-12T07:44:58.370Z,92.80
2023-05-12T07:47:25.161Z,92.70
2023-05-12T07:49:51.922Z,92.90
2023-05-12T07:52:18.542Z,92.30
2023-05-12T07:54:45.224Z,91.10
2023-05-12T07:57:12.929Z,91.80
2023-05-12T07:59:40.193Z,92.20
2023-05-12T08:02:07.322Z,91.60
2023-05-12T08:04:34.238Z,91.90
2023-05-12T08:07:01.204Z,90.30
2023-05-12T08:09:27.868Z,88.80
2023-05-12T08:11:54.472Z,90.90
2023-05-12T08:14:22.555Z,88.50
2023-05-12T08:16:49.371Z,89.20
2023-05-12T08:19:16.113Z,91.00
2023-05-12T08:21:42.835Z,89.60
2023-05-12T08:24:09.880Z,89.50
2023-05-12T08:26:36.489Z,90.30
2023-05-12T08:29:04.637Z,88.90
2023-05-12T08:31:31.816Z,86.80
2023-05-12T08:34:09.154Z,84.20
2023-05-12T08:36:38.453Z,85.10
2023-05-12T08:39:05.373Z,84.80
2023-05-12T08:41:45.002Z,84.20
2023-05-12T08:44:12.824Z,81.00
2023-05-12T08:46:40.023Z,78.30
2023-05-12T08:49:09.764Z,81.20
2023-05-12T08:51:38.055Z,81.40
2023-05-12T08:54:05.559Z,80.40
2023-05-12T08:59:05.312Z,78.90
2023-05-12T09:01:36.909Z,78.70
2023-05-12T09:04:07.045Z,80.10
2023-05-12T09:06:34.439Z,77.90
2023-05-12T09:09:01.258Z,77.50
2023-05-12T09:11:27.908Z,77.50
2023-05-12T09:14:04.152Z,75.50
2023-05-12T09:16:35.806Z,78.60
2023-05-12T09:19:04.005Z,76.10
2023-05-12T09:21:32.325Z,75.10
2023-05-12T09:24:07.525Z,76.90
2023-05-12T09:26:52.227Z,75.00
2023-05-12T09:29:30.649Z,74.40
2023-05-12T09:32:02.713Z,72.10
2023-05-12T09:34:31.598Z,71.20
2023-05-12T09:37:01.082Z,70.20
2023-05-12T09:39:28.826Z,71.20
2023-05-12T09:41:55.748Z,69.80
2023-05-12T09:44:23.694Z,70.70
2023-05-12T09:46:51.423Z,70.90
2023-05-12T09:49:23.870Z,71.60
2023-05-12T09:51:58.434Z,70.90
2023-05-12T09:54:29.746Z,69.50
2023-05-12T09:57:01.544Z,67.40
2023-05-12T09:59:33.174Z,67.50
2023-05-12T10:02:01.678Z,69.80
2023-05-12T10:04:32.814Z,67.50
2023-05-12T10:07:00.010Z,67.80
2023-05-12T10:09:34.012Z,66.10
2023-05-12T10:12:03.098Z,67.20
2023-05-12T10:14:31.021Z,69.10
2023-05-12T10:16:59.194Z,66.30
2023-05-12T10:19:26.815Z,62.50
2023-05-12T10:21:55.466Z,61.70
2023-05-12T10:24:24.906Z,64.00
2023-05-12T10:26:53.040Z,64.90
2023-05-12T10:29:20.296Z,62.20
2023-05-12T10:31:47.416Z,60.10
2023-05-12T10:34:21.544Z,59.10
2023-05-12T10:36:50.212Z,58.10
2023-05-12T10:39:17.230Z,60.70
2023-05-12T10:41:44.184Z,60.00
2023-05-12T10:44:11.255Z,61.10
2023-05-12T10:46:38.088Z,61.10
2023-05-12T10:49:10.181Z,61.40
2023-05-12T10:51:43.010Z,60.60
2023-05-12T10:54:11.910Z,59.30
2023-05-12T10:56:38.748Z,58.40
2023-05-12T10:59:10.260Z,56.20
2023-05-12T11:01:37.866Z,55.70
2023-05-12T11:04:16.001Z,59.00
2023-05-12T11:06:45.036Z,57.80
2023-05-12T11:09:13.300Z,56.40
2023-05-12T11:11:40.563Z,57.40
2023-05-12T11:14:08.259Z,57.20
2023-05-12T11:16:41.193Z,57.00
2023-05-12T11:19:07.975Z,57.80
2023-05-12T11:21:35.120Z,56.30
2023-05-12T11:24:03.028Z,56.70
2023-05-12T11:26:30.383Z,57.60
2023-05-12T11:28:58.254Z,57.10
2023-05-12T11:31:25.681Z,56.90
2023-05-12T11:34:11.904Z,58.50
2023-05-12T11:36:43.833Z,55.00
2023-05-12T11:39:32.169Z,55.40
2023-05-12T11:42:12.871Z,55.10
2023-05-12T11:44:47.780Z,55.40
2023-05-12T11:47:15.750Z,53.30
2023-05-12T11:49:47.940Z,53.80
2023-05-12T11:52:15.215Z,52.90
2023-05-12T11:54:52.619Z,51.70
2023-05-12T11:57:30.294Z,54.80
2023-05-12T12:00:02.323Z,52.10
2023-05-12T12:02:29.257Z,52.80
2023-05-12T12:04:56.791Z,51.60
2023-05-12T12:07:36.678Z,50.60
2023-05-12T12:10:17.367Z,50.70
2023-05-12T12:12:45.390Z,49.20
2023-05-12T12:15:13.041Z,51.60
2023-05-12T12:17:40.607Z,49.90
2023-05-12T12:20:09.024Z,51.90
2023-05-12T12:22:36.056Z,50.20
2023-05-12T12:25:03.752Z,50.30
2023-05-12T12:27:30.595Z,51.00
2023-05-12T12:29:57.423Z,51.80
2023-05-12T12:32:24.292Z,54.20
2023-05-12T12:34:51.549Z,55.30
2023-05-12T12:37:18.225Z,56.60
2023-05-12T12:39:44.872Z,54.40
2023-05-12T12:42:11.548Z,53.60
2023-05-12T12:44:38.236Z,55.60
2023-05-12T12:47:05.233Z,55.50
2023-05-12T12:49:32.017Z,55.30
2023-05-12T12:51:58.722Z,55.80
2023-05-12T12:54:31.302Z,56.40
2023-05-12T12:56:58.421Z,56.40
2023-05-12T12:59:25.106Z,56.70
2023-05-12T13:01:52.170Z,56.10
2023-05-12T13:04:22.643Z,55.40
2023-05-12T13:06:49.607Z,56.00
2023-05-12T13:09:19.050Z,55.80
2023-05-12T13:11:47.191Z,56.40
2023-05-12T13:14:13.917Z,56.10
2023-05-12T13:16:40.567Z,54.70
2023-05-12T13:19:08.152Z,56.00
2023-05-12T13:21:35.023Z,55.60
2023-05-12T13:24:01.813Z,55.10
2023-05-12T13:26:30.931Z,55.90
2023-05-12T13:28:57.722Z,55.30
2023-05-12T13:31:24.512Z,55.10
2023-05-12T13:33:51.148Z,54.90
2023-05-12T13:36:17.837Z,53.90
2023-05-12T13:38:45.751Z,54.20
2023-05-12T13:41:12.393Z,52.50
2023-05-12T13:43:39.351Z,52.70
2023-05-12T13:46:06.083Z,53.30
2023-05-12T13:48:32.718Z,54.30
2023-05-12T13:50:59.364Z,54.70
2023-05-12T13:53:25.941Z,53.70
2023-05-12T13:55:52.604Z,52.50
2023-05-12T13:58:19.185Z,52.30
2023-05-12T14:00:47.860Z,53.30
2023-05-12T14:03:14.559Z,50.80
2023-05-12T14:05:41.177Z,51.60
2023-05-12T14:08:08.051Z,52.30
2023-05-12T14:10:35.560Z,52.10
2023-05-12T14:13:02.198Z,51.00
2023-05-12T14:15:40.643Z,51.70
2023-05-12T14:18:14.893Z,51.70
2023-05-12T14:20:41.915Z,52.00
2023-05-12T14:23:08.609Z,52.30
2023-05-12T14:25:35.332Z,50.70
2023-05-12T14:28:02.598Z,51.40
2023-05-12T14:30:29.758Z,51.90
2023-05-12T14:32:56.518Z,49.90
2023-05-12T14:35:27.367Z,50.80
2023-05-12T14:37:54.417Z,50.70
2023-05-12T14:40:21.135Z,51.10
2023-05-12T14:42:48.070Z,52.60
2023-05-12T14:45:14.910Z,52.50
2023-05-12T14:47:41.638Z,52.80
2023-05-12T14:50:08.674Z,54.40
2023-05-12T14:52:38.323Z,54.00
2023-05-12T14:55:12.011Z,53.40
2023-05-12T14:57:39.771Z,52.70
2023-05-12T15:00:10.850Z,52.50
2023-05-12T15:02:38.734Z,50.80
2023-05-12T15:05:09.753Z,51.10
2023-05-12T15:07:36.602Z,51.30
2023-05-12T15:10:04.139Z,51.80
2023-05-12T15:12:31.587Z,51.50
2023-05-12T15:15:01.052Z,51.00
2023-05-12T15:17:30.764Z,51.40
2023-05-12T15:19:57.675Z,50.90
2023-05-12T15:22:24.431Z,50.70
2023-05-12T15:24:51.019Z,51.10
2023-05-12T15:27:17.626Z,51.80
2023-05-12T15:29:44.242Z,51.40
2023-05-12T15:32:11.057Z,51.20
2023-05-12T15:34:37.733Z,50.60
2023-05-12T15:37:04.572Z,49.30
2023-05-12T15:39:31.541Z,50.10
2023-05-12T15:41:58.917Z,50.10
2023-05-12T15:44:25.690Z,47.70
2023-05-12T15:46:52.389Z,49.10
2023-05-12T15:49:19.115Z,49.40
2023-05-12T15:51:45.833Z,49.30
2023-05-12T15:54:12.510Z,48.70
2023-05-12T15:56:39.559Z,49.10
2023-05-12T15:59:07.322Z,49.10
2023-05-12T16:01:34.065Z,48.80
2023-05-12T16:04:01.146Z,44.40
2023-05-12T16:06:28.006Z,48.50
2023-05-12T16:08:54.789Z,59.30
2023-05-12T16:11:21.481Z,65.20
2023-05-12T16:13:48.207Z,66.70
2023-05-12T16:16:15.107Z,66.70
2023-05-12T16:18:42.932Z,68.40
2023-05-12T16:21:09.651Z,67.10
2023-05-12T16:23:36.291Z,70.10
2023-05-12T16:26:03.026Z,70.70
2023-05-12T16:28:29.708Z,70.40
2023-05-12T16:30:56.500Z,71.30
2023-05-12T16:33:23.444Z,71.80
2023-05-12T16:35:50.604Z,72.30
2023-05-12T16:38:17.255Z,72.20
2023-05-12T16:40:44.013Z,72.60
2023-05-12T16:43:10.706Z,74.10
2023-05-12T16:45:37.429Z,74.50
2023-05-12T16:48:04.884Z,75.90
2023-05-12T16:50:32.126Z,76.60
2023-05-12T16:52:58.810Z,76.80
2023-05-12T16:55:25.671Z,77.20
2023-05-12T16:57:52.269Z,77.30
2023-05-12T17:00:19.298Z,77.70
2023-05-12T17:02:46.002Z,77.30
2023-05-12T17:05:12.677Z,77.50
2023-05-12T17:07:39.301Z,77.60
2023-05-12T17:10:06.664Z,78.20
2023-05-12T17:12:33.356Z,78.50
2023-05-12T17:15:07.672Z,78.70
2023-05-12T17:17:35.442Z,78.80
2023-05-12T17:20:02.587Z,79.10
2023-05-12T17:22:30.869Z,79.40
2023-05-12T17:24:57.512Z,79.30
2023-05-12T17:27:24.201Z,79.30
2023-05-12T17:29:50.864Z,79.90
2023-05-12T17:32:17.491Z,79.80
2023-05-12T17:34:44.164Z,80.10
2023-05-12T17:37:10.798Z,80.30
2023-05-12T17:39:40.446Z,80.30
2023-05-12T17:42:07.341Z,81.10
2023-05-12T17:44:33.924Z,81.20
2023-05-12T17:47:00.720Z,81.30
2023-05-12T17:49:27.580Z,81.20
2023-05-12T17:51:54.936Z,81.40
2023-05-12T17:54:21.635Z,81.70
2023-05-12T17:56:48.527Z,81.90
2023-05-12T17:59:15.149Z,82.20
2023-05-12T18:01:41.752Z,82.70
2023-05-12T18:04:08.556Z,82.70
2023-05-12T18:06:35.513Z,82.60
2023-05-12T18:09:02.670Z,82.70
2023-05-12T18:11:29.602Z,82.80
2023-05-12T18:13:56.541Z,83.20
2023-05-12T18:16:29.140Z,83.50
2023-05-12T18:18:56.429Z,83.80
2023-05-12T18:21:23.167Z,83.50
2023-05-12T18:23:49.812Z,83.80
2023-05-12T18:26:16.414Z,83.80
2023-05-12T18:28:43.079Z,83.80
2023-05-12T18:31:15.866Z,83.90
2023-05-12T18:33:45.982Z,83.90
2023-05-12T18:36:12.926Z,83.90
2023-05-12T18:38:39.931Z,84.10
2023-05-12T18:41:07.154Z,84.40
2023-05-12T18:43:34.815Z,84.60
2023-05-12T18:46:01.888Z,84.80
2023-05-12T18:48:28.626Z,84.90
2023-05-12T18:50:56.258Z,85.20
2023-05-12T18:53:23.062Z,85.40
2023-05-12T18:55:50.212Z,85.30
2023-05-12T18:58:17.324Z,86.30
2023-05-12T19:00:44.978Z,85.50
2023-05-12T19:03:11.744Z,85.70
2023-05-12T19:05:43.035Z,86.00
2023-05-12T19:08:10.730Z,85.70
2023-05-12T19:10:39.463Z,86.60
2023-05-12T19:13:06.820Z,85.70
2023-05-12T19:15:33.418Z,85.90
2023-05-12T19:18:00.298Z,86.00
2023-05-12T19:20:28.088Z,86.80
2023-05-12T19:22:54.715Z,85.70
2023-05-12T19:25:21.842Z,85.60
2023-05-12T19:27:48.809Z,85.60
2023-05-12T19:30:15.463Z,85.60
2023-05-12T19:32:42.762Z,85.70
2023-05-12T19:35:12.760Z,85.60
2023-05-12T19:37:40.136Z,85.60
2023-05-12T19:40:07.522Z,85.40
2023-05-12T19:42:36.124Z,85.90
2023-05-12T19:45:03.051Z,86.30
2023-05-12T19:47:29.996Z,86.40
2023-05-12T19:49:56.999Z,86.50
2023-05-12T19:52:24.713Z,86.50
2023-05-12T19:54:52.671Z,86.50
2023-05-12T19:57:19.827Z,86.60
2023-05-12T19:59:46.565Z,86.60
2023-05-12T20:02:14.388Z,86.70
2023-05-12T20:04:41.116Z,86.90
2023-05-12T20:07:07.749Z,86.90
2023-05-12T20:09:34.349Z,87.00
2023-05-12T20:12:00.925Z,87.10
2023-05-12T20:14:27.594Z,87.40
2023-05-12T20:16:55.765Z,87.30
2023-05-12T20:19:22.447Z,87.50
2023-05-12T20:21:49.096Z,87.60
2023-05-12T20:24:15.718Z,88.30
2023-05-12T20:26:42.556Z,87.30
2023-05-12T20:29:09.197Z,87.50
2023-05-12T20:31:35.914Z,87.50
2023-05-12T20:34:02.695Z,87.00
2023-05-12T20:36:29.301Z,87.60
2023-05-12T20:38:56.164Z,87.60
2023-05-12T20:41:22.777Z,87.60
2023-05-12T20:43:49.526Z,87.30
2023-05-12T20:46:16.273Z,87.10
2023-05-12T20:48:43.034Z,87.30
2023-05-12T20:51:11.523Z,87.20
2023-05-12T20:53:38.357Z,87.20
2023-05-12T20:56:07.244Z,86.70
2023-05-12T20:58:34.000Z,86.80
2023-05-12T21:01:00.620Z,87.10
2023-05-12T21:03:27.506Z,86.70
2023-05-12T21:05:54.342Z,87.00
2023-05-12T21:08:20.992Z,86.90
2023-05-12T21:10:48.595Z,86.70
2023-05-12T21:13:15.345Z,86.60
2023-05-12T21:15:41.968Z,86.60
2023-05-12T21:18:08.979Z,86.10
2023-05-12T21:20:36.095Z,86.00
2023-05-12T21:23:03.278Z,86.10
2023-05-12T21:25:29.961Z,86.00
2023-05-12T21:27:56.625Z,85.50
2023-05-12T21:30:23.549Z,85.50
2023-05-12T21:32:50.472Z,85.60
2023-05-12T21:35:17.177Z,85.60
2023-05-12T21:37:43.868Z,85.50
2023-05-12T21:40:10.997Z,85.10
2023-05-12T21:42:37.788Z,85.30
2023-05-12T21:45:04.918Z,85.00
2023-05-12T21:47:31.559Z,84.90
2023-05-12T21:49:58.198Z,84.90
2023-05-12T21:52:24.994Z,84.80
2023-05-12T21:54:52.422Z,84.80
2023-05-12T21:57:19.149Z,84.60
2023-05-12T21:59:45.853Z,84.90
2023-05-12T22:02:13.170Z,85.00
2023-05-12T22:04:39.887Z,84.80
2023-05-12T22:07:07.690Z,84.60
2023-05-12T22:09:34.378Z,84.30
2023-05-12T22:12:01.053Z,84.50
2023-05-12T22:14:27.898Z,84.30
2023-05-12T22:16:55.808Z,84.80
2023-05-12T22:19:22.846Z,84.60
2023-05-12T22:21:49.707Z,84.60
2023-05-12T22:24:16.463Z,84.80
2023-05-12T22:26:43.072Z,84.60
2023-05-12T22:29:09.731Z,84.60
2023-05-12T22:31:36.571Z,84.70
2023-05-12T22:34:03.306Z,84.80
2023-05-12T22:36:30.363Z,84.90
2023-05-12T22:38:57.098Z,84.90
2023-05-12T22:41:25.388Z,84.80
2023-05-12T22:43:52.189Z,84.60
2023-05-12T22:46:18.812Z,84.50
2023-05-12T22:48:45.435Z,84.40
2023-05-12T22:51:12.064Z,84.50
2023-05-12T22:53:42.141Z,84.40
2023-05-12T22:56:09.159Z,84.20
2023-05-12T22:58:35.865Z,84.40
2023-05-12T23:01:02.590Z,84.60
2023-05-12T23:03:29.400Z,84.70
2023-05-12T23:05:56.227Z,84.60
2023-05-12T23:08:23.077Z,84.60
2023-05-12T23:10:49.840Z,84.30
2023-05-12T23:13:16.594Z,84.30
2023-05-12T23:15:43.269Z,84.40
2023-05-12T23:18:09.916Z,84.20
2023-05-12T23:20:36.559Z,83.90
2023-05-12T23:23:03.306Z,83.80
2023-05-12T23:25:29.996Z,83.90
2023-05-12T23:27:56.645Z,83.70
2023-05-12T23:30:23.531Z,84.60
2023-05-12T23:32:50.660Z,83.50
2023-05-12T23:35:17.483Z,84.20
2023-05-12T23:37:44.573Z,83.10
2023-05-12T23:40:11.426Z,82.80
2023-05-12T23:42:38.067Z,82.90
2023-05-12T23:45:05.415Z,82.60
2023-05-12T23:47:32.086Z,82.60
2023-05-12T23:49:58.785Z,82.20
2023-05-12T23:52:25.421Z,81.90
2023-05-12T23:54:52.084Z,81.50
2023-05-12T23:57:19.003Z,81.20
2023-05-12T23:59:45.637Z,80.90
